Aiseau, Belgium
Current Conditions -  °F | °C
As of 12:20 AM on Tuesday 23 Dec 2014 (Local Time) from EBCI Reporting Station
Light Rain Light Rain  
Wind Chill: 50°   Ceiling: 2000
Heat Index: 50°   Visibility: 6mi
Dew Point: 45°   Wind: 23mph
Humidity: 82%   Direction: 230°SW
Pressure: 30.18"   Gusts: NA
Location:  50.41°N, 4.59°E
Report Text: EBCI 222320Z 23020KT 9999 -RA FEW012 BKN020 10/07 Q1022 TEMPO 4000 -DZ BKN004
Loading
Personal Weather Stations






























Interactive Weather Map New forecast layout! Learn more

10-Day Weather Forecast

Advertisements
Track Severe Weather on mobile